createdAt,value
2023-05-08T00:01:57.651Z,100.00
2023-05-08T00:04:24.245Z,100.00
2023-05-08T00:06:51.684Z,100.00
2023-05-08T00:09:19.471Z,100.00
2023-05-08T00:11:48.556Z,100.00
2023-05-08T00:14:17.112Z,100.00
2023-05-08T00:16:43.808Z,100.00
2023-05-08T00:19:10.315Z,100.00
2023-05-08T00:21:36.863Z,100.00
2023-05-08T00:24:03.568Z,100.00
2023-05-08T00:26:30.038Z,100.00
2023-05-08T00:28:57.785Z,100.00
2023-05-08T00:31:24.453Z,100.00
2023-05-08T00:33:50.991Z,100.00
2023-05-08T00:36:17.492Z,100.00
2023-05-08T00:38:44.014Z,100.00
2023-05-08T00:41:10.488Z,100.00
2023-05-08T00:43:37.687Z,100.00
2023-05-08T00:46:06.798Z,100.00
2023-05-08T00:48:35.229Z,100.00
2023-05-08T00:51:04.742Z,100.00
2023-05-08T00:53:33.812Z,100.00
2023-05-08T00:56:00.642Z,100.00
2023-05-08T00:58:27.922Z,100.00
2023-05-08T01:00:56.195Z,100.00
2023-05-08T01:03:23.819Z,100.00
2023-05-08T01:05:50.585Z,100.00
2023-05-08T01:08:17.085Z,100.00
2023-05-08T01:11:08.180Z,100.00
2023-05-08T01:13:42.503Z,100.00
2023-05-08T01:16:17.824Z,100.00
2023-05-08T01:19:26.774Z,100.00
2023-05-08T01:21:58.945Z,100.00
2023-05-08T01:24:59.312Z,100.00
2023-05-08T01:27:44.084Z,100.00
2023-05-08T01:30:27.399Z,100.00
2023-05-08T01:32:59.351Z,100.00
2023-05-08T01:35:40.140Z,100.00
2023-05-08T01:38:10.518Z,100.00
2023-05-08T01:40:40.039Z,100.00
2023-05-08T01:43:14.524Z,100.00
2023-05-08T01:45:46.788Z,100.00
2023-05-08T01:48:44.458Z,100.00
2023-05-08T01:51:19.802Z,100.00
2023-05-08T01:53:52.260Z,100.00
2023-05-08T01:56:24.480Z,100.00
2023-05-08T01:58:54.252Z,100.00
2023-05-08T02:01:24.433Z,100.00
2023-05-08T02:03:52.760Z,100.00
2023-05-08T02:06:21.977Z,100.00
2023-05-08T02:08:49.510Z,100.00
2023-05-08T02:11:18.353Z,100.00
2023-05-08T02:13:47.913Z,100.00
2023-05-08T02:16:15.244Z,100.00
2023-05-08T02:18:48.339Z,100.00
2023-05-08T02:21:15.677Z,100.00
2023-05-08T02:23:43.774Z,100.00
2023-05-08T02:26:13.196Z,100.00
2023-05-08T02:28:40.506Z,100.00
2023-05-08T02:31:09.051Z,100.00
2023-05-08T02:33:38.686Z,100.00
2023-05-08T02:36:07.349Z,100.00
2023-05-08T02:38:37.725Z,100.00
2023-05-08T02:41:06.526Z,100.00
2023-05-08T02:43:33.299Z,100.00
2023-05-08T02:46:09.890Z,100.00
2023-05-08T02:48:41.131Z,100.00
2023-05-08T02:51:27.983Z,100.00
2023-05-08T02:54:22.948Z,100.00
2023-05-08T02:57:21.821Z,100.00
2023-05-08T03:00:12.449Z,100.00
2023-05-08T03:02:53.066Z,100.00
2023-05-08T03:05:24.361Z,100.00
2023-05-08T03:07:54.408Z,100.00
2023-05-08T03:10:25.095Z,100.00
2023-05-08T03:12:54.913Z,100.00
2023-05-08T03:15:28.388Z,100.00
2023-05-08T03:17:58.834Z,100.00
2023-05-08T03:20:31.047Z,100.00
2023-05-08T03:22:57.900Z,100.00
2023-05-08T03:25:25.659Z,100.00
2023-05-08T03:27:53.754Z,100.00
2023-05-08T03:30:20.807Z,100.00
2023-05-08T03:32:49.131Z,100.00
2023-05-08T03:35:16.618Z,100.00
2023-05-08T03:37:43.330Z,100.00
2023-05-08T03:40:10.837Z,100.00
2023-05-08T03:42:38.470Z,100.00
2023-05-08T03:45:07.024Z,100.00
2023-05-08T03:47:36.216Z,100.00
2023-05-08T03:50:03.179Z,100.00
2023-05-08T03:52:30.277Z,100.00
2023-05-08T03:54:56.780Z,100.00
2023-05-08T03:57:31.324Z,100.00
2023-05-08T04:00:01.660Z,100.00
2023-05-08T04:02:42.798Z,100.00
2023-05-08T04:05:21.469Z,100.00
2023-05-08T04:08:29.867Z,100.00
2023-05-08T04:11:06.953Z,100.00
2023-05-08T04:13:42.380Z,100.00
2023-05-08T04:16:24.032Z,100.00
2023-05-08T04:18:54.393Z,100.00
2023-05-08T04:21:24.201Z,100.00
2023-05-08T04:23:52.232Z,100.00
2023-05-08T04:26:19.357Z,100.00
2023-05-08T04:28:46.898Z,100.00
2023-05-08T04:31:16.288Z,100.00
2023-05-08T04:33:46.912Z,100.00
2023-05-08T04:36:14.312Z,100.00
2023-05-08T04:38:41.179Z,100.00
2023-05-08T04:41:08.798Z,100.00
2023-05-08T04:43:36.551Z,100.00
2023-05-08T04:46:06.135Z,100.00
2023-05-08T04:48:33.839Z,100.00
2023-05-08T04:51:00.767Z,100.00
2023-05-08T04:53:27.301Z,100.00
2023-05-08T04:55:53.876Z,100.00
2023-05-08T04:58:20.448Z,100.00
2023-05-08T05:00:46.930Z,100.00
2023-05-08T05:03:13.727Z,100.00
2023-05-08T05:05:40.479Z,100.00
2023-05-08T05:08:07.010Z,100.00
2023-05-08T05:10:33.527Z,100.00
2023-05-08T05:13:00.047Z,100.00
2023-05-08T05:15:26.535Z,100.00
2023-05-08T05:17:53.125Z,100.00
2023-05-08T05:20:19.621Z,100.00
2023-05-08T05:22:46.166Z,100.00
2023-05-08T05:25:13.041Z,100.00
2023-05-08T05:27:39.693Z,100.00
2023-05-08T05:30:07.010Z,100.00
2023-05-08T05:32:33.599Z,100.00
2023-05-08T05:35:00.199Z,100.00
2023-05-08T05:37:26.934Z,100.00
2023-05-08T05:39:53.406Z,100.00
2023-05-08T05:42:19.928Z,100.00
2023-05-08T05:44:46.414Z,100.00
2023-05-08T05:47:13.048Z,100.00
2023-05-08T05:49:43.024Z,100.00
2023-05-08T05:52:09.567Z,100.00
2023-05-08T05:54:36.069Z,100.00
2023-05-08T05:57:06.309Z,100.00
2023-05-08T05:59:32.798Z,100.00
2023-05-08T06:01:59.463Z,100.00
2023-05-08T06:04:26.476Z,100.00
2023-05-08T06:06:53.124Z,100.00
2023-05-08T06:09:19.607Z,100.00
2023-05-08T06:11:46.088Z,100.00
2023-05-08T06:14:12.582Z,100.00
2023-05-08T06:16:39.122Z,100.00
2023-05-08T06:19:08.214Z,100.00
2023-05-08T06:21:34.679Z,100.00
2023-05-08T06:24:04.237Z,100.00
2023-05-08T06:26:30.737Z,100.00
2023-05-08T06:28:57.220Z,100.00
2023-05-08T06:31:23.767Z,100.00
2023-05-08T06:33:50.384Z,100.00
2023-05-08T06:36:16.820Z,100.00
2023-05-08T06:38:43.354Z,100.00
2023-05-08T06:41:09.793Z,100.00
2023-05-08T06:43:36.251Z,100.00
2023-05-08T06:46:02.810Z,100.00
2023-05-08T06:48:29.603Z,100.00
2023-05-08T06:50:56.446Z,100.00
2023-05-08T06:53:23.516Z,100.00
2023-05-08T06:55:49.977Z,100.00
2023-05-08T06:58:16.428Z,100.00
2023-05-08T07:00:43.086Z,100.00
2023-05-08T07:03:09.732Z,100.00
2023-05-08T07:05:36.368Z,100.00
2023-05-08T07:08:02.847Z,100.00
2023-05-08T07:10:29.360Z,100.00
2023-05-08T07:12:55.918Z,100.00
2023-05-08T07:15:26.506Z,100.00
2023-05-08T07:17:56.303Z,100.00
2023-05-08T07:20:24.306Z,100.00
2023-05-08T07:22:50.852Z,100.00
2023-05-08T07:25:17.396Z,100.00
2023-05-08T07:27:43.969Z,100.00
2023-05-08T07:30:10.804Z,100.00
2023-05-08T07:32:39.153Z,100.00
2023-05-08T07:35:10.308Z,100.00
2023-05-08T07:37:40.064Z,100.00
2023-05-08T07:40:07.390Z,100.00
2023-05-08T07:42:44.090Z,100.00
2023-05-08T07:45:12.666Z,100.00
2023-05-08T07:47:51.576Z,100.00
2023-05-08T07:50:18.207Z,100.00
2023-05-08T07:52:45.647Z,100.00
2023-05-08T07:55:13.800Z,100.00
2023-05-08T07:57:41.686Z,98.96
2023-05-08T08:00:10.552Z,97.97
2023-05-08T08:02:37.791Z,97.76
2023-05-08T08:05:08.346Z,98.04
2023-05-08T08:07:35.290Z,99.01
2023-05-08T08:10:03.820Z,99.25
2023-05-08T08:12:30.869Z,98.31
2023-05-08T08:14:57.984Z,97.16
2023-05-08T08:17:26.794Z,96.97
2023-05-08T08:19:54.824Z,94.67
2023-05-08T08:22:21.366Z,93.53
2023-05-08T08:24:47.930Z,90.95
2023-05-08T08:27:14.689Z,91.73
2023-05-08T08:29:41.248Z,91.17
2023-05-08T08:32:07.972Z,90.41
2023-05-08T08:34:34.581Z,88.00
2023-05-08T08:37:01.200Z,85.84
2023-05-08T08:39:27.899Z,86.28
2023-05-08T08:41:54.495Z,85.61
2023-05-08T08:44:20.972Z,85.00
2023-05-08T08:46:51.965Z,84.54
2023-05-08T08:49:24.643Z,84.79
2023-05-08T08:51:55.715Z,83.39
2023-05-08T08:54:24.596Z,83.69
2023-05-08T08:56:52.867Z,83.21
2023-05-08T08:59:19.715Z,83.63
2023-05-08T09:01:51.650Z,83.56
2023-05-08T09:04:18.187Z,83.74
2023-05-08T09:06:45.974Z,83.98
2023-05-08T09:09:13.550Z,84.43
2023-05-08T09:11:41.489Z,82.64
2023-05-08T09:14:08.643Z,82.53
2023-05-08T09:16:35.539Z,81.25
2023-05-08T09:19:04.503Z,81.40
2023-05-08T09:21:32.448Z,82.43
2023-05-08T09:24:01.074Z,82.06
2023-05-08T09:26:40.444Z,81.05
2023-05-08T09:29:12.609Z,83.60
2023-05-08T09:31:44.339Z,82.71
2023-05-08T09:34:21.857Z,80.23
2023-05-08T09:36:48.424Z,80.24
2023-05-08T09:39:22.292Z,81.94
2023-05-08T09:41:59.278Z,81.29
2023-05-08T09:44:25.809Z,80.37
2023-05-08T09:46:52.371Z,79.99
2023-05-08T09:49:19.335Z,79.97
2023-05-08T09:51:55.467Z,79.77
2023-05-08T09:54:22.027Z,81.10
2023-05-08T09:56:48.487Z,82.35
2023-05-08T09:59:30.032Z,79.51
2023-05-08T10:01:57.891Z,77.43
2023-05-08T10:04:38.061Z,78.49
2023-05-08T10:07:04.729Z,77.66
2023-05-08T10:09:42.424Z,80.31
2023-05-08T10:12:13.958Z,80.42
2023-05-08T10:14:40.567Z,77.61
2023-05-08T10:17:10.167Z,78.48
2023-05-08T10:19:41.121Z,78.43
2023-05-08T10:22:11.363Z,78.45
2023-05-08T10:24:41.067Z,79.07
2023-05-08T10:27:16.474Z,78.66
2023-05-08T10:30:00.975Z,78.07
2023-05-08T10:32:31.411Z,77.22
2023-05-08T10:35:03.000Z,76.91
2023-05-08T10:37:30.973Z,77.00
2023-05-08T10:39:58.507Z,76.41
2023-05-08T10:42:27.669Z,77.19
2023-05-08T10:44:54.698Z,74.26
2023-05-08T10:47:39.001Z,75.91
2023-05-08T10:50:22.667Z,76.43
2023-05-08T10:53:28.150Z,76.63
2023-05-08T10:55:55.467Z,76.37
2023-05-08T10:58:33.456Z,74.30
2023-05-08T11:00:59.939Z,75.63
2023-05-08T11:03:32.284Z,73.51
2023-05-08T11:06:01.488Z,72.79
2023-05-08T11:08:31.947Z,75.18
2023-05-08T11:11:06.328Z,75.20
2023-05-08T11:13:38.094Z,74.49
2023-05-08T11:16:08.510Z,73.20
2023-05-08T11:18:48.580Z,73.65
2023-05-08T11:21:22.014Z,75.92
2023-05-08T11:24:00.307Z,74.63
2023-05-08T11:26:42.479Z,71.68
2023-05-08T11:29:18.228Z,72.83
2023-05-08T11:31:52.119Z,74.17
2023-05-08T11:34:54.724Z,75.13
2023-05-08T11:37:24.210Z,74.01
2023-05-08T11:39:53.613Z,74.46
2023-05-08T11:42:29.141Z,72.70
2023-05-08T11:45:09.094Z,71.59
2023-05-08T11:47:41.557Z,74.28
2023-05-08T11:50:09.503Z,73.41
2023-05-08T11:52:37.403Z,73.17
2023-05-08T11:55:11.770Z,73.16
2023-05-08T11:57:38.673Z,73.42
2023-05-08T12:00:10.846Z,74.54
2023-05-08T12:02:42.972Z,72.35
2023-05-08T12:05:11.299Z,71.96
2023-05-08T12:07:47.786Z,73.65
2023-05-08T12:10:16.134Z,73.02
2023-05-08T12:12:44.362Z,74.16
2023-05-08T12:15:15.347Z,72.76
2023-05-08T12:17:43.236Z,72.03
2023-05-08T12:20:14.500Z,73.43
2023-05-08T12:22:42.108Z,72.68
2023-05-08T12:25:09.555Z,73.22
2023-05-08T12:27:37.869Z,72.82
2023-05-08T12:30:12.935Z,71.66
2023-05-08T12:32:43.772Z,71.70
2023-05-08T12:35:12.538Z,69.27
2023-05-08T12:37:39.688Z,72.08
2023-05-08T12:40:07.995Z,73.17
2023-05-08T12:42:43.720Z,72.74
2023-05-08T12:45:24.389Z,71.11
2023-05-08T12:47:53.455Z,70.31
2023-05-08T12:50:21.805Z,70.55
2023-05-08T12:52:51.365Z,69.43
2023-05-08T12:55:21.892Z,70.75
2023-05-08T12:57:49.824Z,73.72
2023-05-08T13:00:17.478Z,70.30
2023-05-08T13:02:55.055Z,69.54
2023-05-08T13:05:23.411Z,69.61
2023-05-08T13:07:51.319Z,69.84
2023-05-08T13:10:23.989Z,70.86
2023-05-08T13:12:52.217Z,70.40
2023-05-08T13:15:18.821Z,68.71
2023-05-08T13:17:45.335Z,68.86
2023-05-08T13:20:14.801Z,71.05
2023-05-08T13:22:41.458Z,68.37
2023-05-08T13:25:08.614Z,70.11
2023-05-08T13:27:35.148Z,69.22
2023-05-08T13:30:01.607Z,70.83
2023-05-08T13:32:28.154Z,68.83
2023-05-08T13:34:58.715Z,71.13
2023-05-08T13:37:26.744Z,70.43
2023-05-08T13:39:53.245Z,69.46
2023-05-08T13:42:19.721Z,69.58
2023-05-08T13:44:46.134Z,70.68
2023-05-08T13:47:12.735Z,71.00
2023-05-08T13:49:39.199Z,70.22
2023-05-08T13:52:08.348Z,70.69
2023-05-08T13:54:34.837Z,70.73
2023-05-08T13:57:02.719Z,69.79
2023-05-08T13:59:31.172Z,69.33
2023-05-08T14:01:57.705Z,68.39
2023-05-08T14:04:24.218Z,69.66
2023-05-08T14:06:50.740Z,70.91
2023-05-08T14:09:17.279Z,69.13
2023-05-08T14:11:43.846Z,68.51
2023-05-08T14:14:10.376Z,70.98
2023-05-08T14:16:37.088Z,70.09
2023-05-08T14:19:05.236Z,69.64
2023-05-08T14:21:31.762Z,70.67
2023-05-08T14:23:58.277Z,69.83
2023-05-08T14:26:24.722Z,69.35
2023-05-08T14:28:51.191Z,67.99
2023-05-08T14:31:17.786Z,69.61
2023-05-08T14:33:44.345Z,70.60
2023-05-08T14:36:10.904Z,69.31
2023-05-08T14:38:37.355Z,69.67
2023-05-08T14:41:04.886Z,69.15
2023-05-08T14:43:31.648Z,68.39
2023-05-08T14:45:58.447Z,67.52
2023-05-08T14:48:28.379Z,68.01
2023-05-08T14:50:56.451Z,68.68
2023-05-08T14:53:25.876Z,68.06
2023-05-08T14:55:52.724Z,70.20
2023-05-08T14:58:19.298Z,70.36
2023-05-08T15:00:46.090Z,69.84
2023-05-08T15:03:12.662Z,69.60
2023-05-08T15:05:39.219Z,69.09
2023-05-08T15:08:05.733Z,67.57
2023-05-08T15:10:32.235Z,68.84
2023-05-08T15:12:58.769Z,69.90
2023-05-08T15:15:25.369Z,68.24
2023-05-08T15:17:52.071Z,67.79
2023-05-08T15:20:18.693Z,69.39
2023-05-08T15:22:45.283Z,70.25
2023-05-08T15:25:15.485Z,69.00
2023-05-08T15:27:42.536Z,70.49
2023-05-08T15:30:09.525Z,68.00
2023-05-08T15:32:36.136Z,66.30
2023-05-08T15:35:03.230Z,65.79
2023-05-08T15:37:29.687Z,66.41
2023-05-08T15:39:58.281Z,66.04
2023-05-08T15:42:24.910Z,67.10
2023-05-08T15:44:56.604Z,66.82
2023-05-08T15:47:23.999Z,66.04
2023-05-08T15:49:51.225Z,65.77
2023-05-08T15:52:19.549Z,66.52
2023-05-08T15:54:46.701Z,65.79
2023-05-08T15:57:13.622Z,65.78
2023-05-08T15:59:40.310Z,67.53
2023-05-08T16:02:07.880Z,65.79
2023-05-08T16:04:35.042Z,64.43
2023-05-08T16:07:01.875Z,66.00
2023-05-08T16:09:28.350Z,65.64
2023-05-08T16:11:54.801Z,66.09
2023-05-08T16:14:21.359Z,63.65
2023-05-08T16:16:47.801Z,64.86
2023-05-08T16:19:15.782Z,63.58
2023-05-08T16:21:42.297Z,64.03
2023-05-08T16:24:08.814Z,64.76
2023-05-08T16:26:35.404Z,65.73
2023-05-08T16:29:01.935Z,65.41
2023-05-08T16:31:28.410Z,64.12
2023-05-08T16:33:54.907Z,63.64
2023-05-08T16:36:21.772Z,64.74
2023-05-08T16:38:48.293Z,63.44
2023-05-08T16:41:14.778Z,63.95
2023-05-08T16:43:41.221Z,64.57
2023-05-08T16:46:08.285Z,64.55
2023-05-08T16:48:34.913Z,63.84
2023-05-08T16:51:01.423Z,63.11
2023-05-08T16:53:27.961Z,63.26
2023-05-08T16:55:54.948Z,64.03
2023-05-08T16:58:25.895Z,64.43
2023-05-08T17:00:53.364Z,64.48
2023-05-08T17:03:19.976Z,65.43
2023-05-08T17:05:46.565Z,64.96
2023-05-08T17:08:13.238Z,65.80
2023-05-08T17:10:39.724Z,64.59
2023-05-08T17:13:06.257Z,65.63
2023-05-08T17:15:32.915Z,65.46
2023-05-08T17:17:59.408Z,66.49
2023-05-08T17:20:27.886Z,66.35
2023-05-08T17:22:57.910Z,65.42
2023-05-08T17:25:24.440Z,66.09
2023-05-08T17:27:51.377Z,66.52
2023-05-08T17:30:17.896Z,66.82
2023-05-08T17:32:46.187Z,66.77
2023-05-08T17:35:12.692Z,66.75
2023-05-08T17:37:39.193Z,67.14
2023-05-08T17:40:06.395Z,67.86
2023-05-08T17:42:32.937Z,67.64
2023-05-08T17:44:59.399Z,67.92
2023-05-08T17:47:27.200Z,68.89
2023-05-08T17:49:53.654Z,67.80
2023-05-08T17:52:20.288Z,69.21
2023-05-08T17:54:46.797Z,69.36
2023-05-08T17:57:13.269Z,70.15
2023-05-08T17:59:39.755Z,70.21
2023-05-08T18:02:06.378Z,70.74
2023-05-08T18:04:32.964Z,71.69
2023-05-08T18:07:01.499Z,72.69
2023-05-08T18:09:28.466Z,72.93
2023-05-08T18:12:05.159Z,72.98
2023-05-08T18:14:32.324Z,73.79
2023-05-08T18:16:59.838Z,74.37
2023-05-08T18:19:26.597Z,72.05
2023-05-08T18:21:53.122Z,71.47
2023-05-08T18:24:19.612Z,72.07
2023-05-08T18:26:47.523Z,73.11
2023-05-08T18:29:14.026Z,74.57
2023-05-08T18:31:40.507Z,75.84
2023-05-08T18:34:07.076Z,77.52
2023-05-08T18:36:33.532Z,76.21
2023-05-08T18:39:00.105Z,76.01
2023-05-08T18:41:26.827Z,76.64
2023-05-08T18:43:53.365Z,77.27
2023-05-08T18:46:19.923Z,78.97
2023-05-08T18:48:49.921Z,78.89
2023-05-08T18:51:16.394Z,79.59
2023-05-08T18:53:42.949Z,80.41
2023-05-08T18:56:11.412Z,80.93
2023-05-08T18:58:38.023Z,81.06
2023-05-08T19:01:06.143Z,80.62
2023-05-08T19:03:32.864Z,80.11
2023-05-08T19:05:59.388Z,78.91
2023-05-08T19:08:25.872Z,80.32
2023-05-08T19:10:53.278Z,80.75
2023-05-08T19:13:19.802Z,79.45
2023-05-08T19:15:46.461Z,79.44
2023-05-08T19:18:14.059Z,80.61
2023-05-08T19:20:40.632Z,81.04
2023-05-08T19:23:07.150Z,79.12
2023-05-08T19:25:33.713Z,80.00
2023-05-08T19:28:00.231Z,78.80
2023-05-08T19:30:26.757Z,80.49
2023-05-08T19:32:53.250Z,78.75
2023-05-08T19:35:19.741Z,78.86
2023-05-08T19:37:46.541Z,78.18
2023-05-08T19:40:13.768Z,78.40
2023-05-08T19:42:40.719Z,78.26
2023-05-08T19:45:07.686Z,79.56
2023-05-08T19:47:34.158Z,80.29
2023-05-08T19:50:00.669Z,79.87
2023-05-08T19:52:27.140Z,79.94
2023-05-08T19:54:53.848Z,79.38
2023-05-08T19:57:20.548Z,79.49
2023-05-08T19:59:47.103Z,79.44
2023-05-08T20:02:13.619Z,78.88
2023-05-08T20:04:57.327Z,78.25
2023-05-08T20:07:26.767Z,78.55
2023-05-08T20:09:53.228Z,79.64
2023-05-08T20:12:19.696Z,80.12
2023-05-08T20:14:49.060Z,80.37
2023-05-08T20:17:15.560Z,80.19
2023-05-08T20:19:42.042Z,80.19
2023-05-08T20:22:08.606Z,80.47
2023-05-08T20:24:35.154Z,80.75
2023-05-08T20:27:01.715Z,81.23
2023-05-08T20:29:33.388Z,82.00
2023-05-08T20:31:59.984Z,83.71
2023-05-08T20:34:26.513Z,85.22
2023-05-08T20:36:53.019Z,86.26
2023-05-08T20:39:19.457Z,85.41
2023-05-08T20:41:46.004Z,85.66
2023-05-08T20:44:16.962Z,86.85
2023-05-08T20:46:43.454Z,87.10
2023-05-08T20:49:09.904Z,87.87
2023-05-08T20:51:36.577Z,87.04
2023-05-08T20:54:03.303Z,87.30
2023-05-08T20:56:32.744Z,87.30
2023-05-08T20:59:01.969Z,86.84
2023-05-08T21:01:31.366Z,86.63
2023-05-08T21:03:57.832Z,86.73
2023-05-08T21:06:24.434Z,88.01
2023-05-08T21:08:50.902Z,89.22
2023-05-08T21:11:17.836Z,88.92
2023-05-08T21:13:44.811Z,89.22
2023-05-08T21:16:14.773Z,89.09
2023-05-08T21:18:41.351Z,90.09
2023-05-08T21:21:15.679Z,89.64
2023-05-08T21:23:42.175Z,89.55
2023-05-08T21:26:08.678Z,88.84
2023-05-08T21:28:35.219Z,88.98
2023-05-08T21:31:05.747Z,89.24
2023-05-08T21:33:33.800Z,88.58
2023-05-08T21:36:00.686Z,88.69
2023-05-08T21:38:30.683Z,88.12
2023-05-08T21:40:57.341Z,88.37
2023-05-08T21:43:23.852Z,89.34
2023-05-08T21:45:50.409Z,89.96
2023-05-08T21:48:16.973Z,89.78
2023-05-08T21:50:43.425Z,89.31
2023-05-08T21:53:09.996Z,88.64
2023-05-08T21:55:36.510Z,88.36
2023-05-08T21:58:03.029Z,87.55
2023-05-08T22:00:29.548Z,87.54
2023-05-08T22:02:56.233Z,89.58
2023-05-08T22:05:23.523Z,89.85
2023-05-08T22:07:50.245Z,89.25
2023-05-08T22:10:24.567Z,88.51
2023-05-08T22:12:53.631Z,89.88
2023-05-08T22:15:29.538Z,90.47
2023-05-08T22:18:02.550Z,90.10
2023-05-08T22:20:33.359Z,91.27
2023-05-08T22:23:00.371Z,90.42
2023-05-08T22:25:27.142Z,89.90
2023-05-08T22:27:53.644Z,90.27
2023-05-08T22:30:20.131Z,90.27
2023-05-08T22:32:57.727Z,91.07
2023-05-08T22:35:26.847Z,90.82
2023-05-08T22:38:01.327Z,90.86
2023-05-08T22:40:28.636Z,91.15
2023-05-08T22:42:56.182Z,91.89
2023-05-08T22:45:23.231Z,91.65
2023-05-08T22:47:49.837Z,91.41
2023-05-08T22:50:17.057Z,91.47
2023-05-08T22:52:43.757Z,92.24
2023-05-08T22:55:10.310Z,93.20
2023-05-08T22:57:41.214Z,92.80
2023-05-08T23:00:08.518Z,91.49
2023-05-08T23:02:35.585Z,92.05
2023-05-08T23:05:02.366Z,93.29
2023-05-08T23:07:29.116Z,93.59
2023-05-08T23:09:55.673Z,95.83
2023-05-08T23:12:22.144Z,94.75
2023-05-08T23:14:48.686Z,94.55
2023-05-08T23:17:15.432Z,96.06
2023-05-08T23:19:42.487Z,96.27
2023-05-08T23:22:09.478Z,96.13
2023-05-08T23:24:36.753Z,95.27
2023-05-08T23:27:03.364Z,94.26
2023-05-08T23:29:29.933Z,94.24
2023-05-08T23:31:56.497Z,94.41
2023-05-08T23:34:26.100Z,94.46
2023-05-08T23:36:52.550Z,93.65
2023-05-08T23:39:19.236Z,93.31
2023-05-08T23:41:45.747Z,93.58
2023-05-08T23:44:12.243Z,93.41
2023-05-08T23:46:38.763Z,92.30
2023-05-08T23:49:05.647Z,93.12
2023-05-08T23:51:35.169Z,92.91
2023-05-08T23:54:02.633Z,92.60
2023-05-08T23:56:30.792Z,93.04
2023-05-08T23:58:57.293Z,93.68
